sensor_id;sensor_type;location;lat;lon;timestamp;temperature;humidity
843;DHT22;407;48.884;9.126;2022-08-11T02:35:25;17.10;71.60
843;DHT22;407;48.884;9.126;2022-08-11T02:38:07;17.10;50.50
843;DHT22;407;48.884;9.126;2022-08-11T02:40:35;16.80;32.00
843;DHT22;407;48.884;9.126;2022-08-11T02:45:46;16.70;79.20
843;DHT22;407;48.884;9.126;2022-08-11T02:54:06;16.60;90.00
843;DHT22;407;48.884;9.126;2022-08-11T02:56:50;16.50;99.90
843;DHT22;407;48.884;9.126;2022-08-11T02:59:31;16.50;99.90
843;DHT22;407;48.884;9.126;2022-08-11T03:07:59;16.30;99.90
843;DHT22;407;48.884;9.126;2022-08-11T03:16:50;16.40;99.90
843;DHT22;407;48.884;9.126;2022-08-11T03:27:49;16.30;99.90
843;DHT22;407;48.884;9.126;2022-08-11T03:30:40;16.20;99.90
843;DHT22;407;48.884;9.126;2022-08-11T03:33:22;16.10;99.90
843;DHT22;407;48.884;9.126;2022-08-11T03:41:59;15.70;99.90
843;DHT22;407;48.884;9.126;2022-08-11T03:53:27;15.70;1.00
843;DHT22;407;48.884;9.126;2022-08-11T04:06:52;15.90;1.00
843;DHT22;407;48.884;9.126;2022-08-11T04:12:36;15.60;1.00
843;DHT22;407;48.884;9.126;2022-08-11T04:15:18;15.70;1.00
843;DHT22;407;48.884;9.126;2022-08-11T04:30:05;15.50;1.00
843;DHT22;407;48.884;9.126;2022-08-11T04:52:36;15.90;1.00
843;DHT22;407;48.884;9.126;2022-08-11T04:55:50;15.90;1.00
843;DHT22;407;48.884;9.126;2022-08-11T04:58:57;16.10;1.00
843;DHT22;407;48.884;9.126;2022-08-11T05:18:55;22.20;99.90
843;DHT22;407;48.884;9.126;2022-08-11T05:21:42;22.80;99.90
843;DHT22;407;48.884;9.126;2022-08-11T05:24:34;23.40;99.90
843;DHT22;407;48.884;9.126;2022-08-11T05:27:23;24.00;99.90
843;DHT22;407;48.884;9.126;2022-08-11T05:30:11;24.40;99.90
843;DHT22;407;48.884;9.126;2022-08-11T05:33:02;25.40;99.90
843;DHT22;407;48.884;9.126;2022-08-11T05:35:49;26.00;99.90
843;DHT22;407;48.884;9.126;2022-08-11T05:38:25;26.80;99.90
843;DHT22;407;48.884;9.126;2022-08-11T05:41:12;27.20;99.90
843;DHT22;407;48.884;9.126;2022-08-11T05:43:59;27.70;99.90
843;DHT22;407;48.884;9.126;2022-08-11T05:46:43;28.30;99.90
843;DHT22;407;48.884;9.126;2022-08-11T05:49:32;28.40;99.90
843;DHT22;407;48.884;9.126;2022-08-11T05:52:20;29.60;99.90
843;DHT22;407;48.884;9.126;2022-08-11T05:55:06;30.20;99.90
843;DHT22;407;48.884;9.126;2022-08-11T06:00:23;32.80;99.90
843;DHT22;407;48.884;9.126;2022-08-11T06:02:57;31.60;99.90
843;DHT22;407;48.884;9.126;2022-08-11T06:05:32;31.50;99.90
843;DHT22;407;48.884;9.126;2022-08-11T06:07:59;31.50;99.90
843;DHT22;407;48.884;9.126;2022-08-11T06:10:30;31.60;99.90
843;DHT22;407;48.884;9.126;2022-08-11T06:12:58;31.30;99.90
843;DHT22;407;48.884;9.126;2022-08-11T06:15:30;31.10;99.90
843;DHT22;407;48.884;9.126;2022-08-11T06:18:00;31.20;99.90
843;DHT22;407;48.884;9.126;2022-08-11T06:20:27;31.60;99.90
843;DHT22;407;48.884;9.126;2022-08-11T06:23:03;32.00;99.90
843;DHT22;407;48.884;9.126;2022-08-11T06:25:30;31.60;99.90
843;DHT22;407;48.884;9.126;2022-08-11T06:27:57;32.40;99.90
843;DHT22;407;48.884;9.126;2022-08-11T06:30:36;32.80;99.90
843;DHT22;407;48.884;9.126;2022-08-11T06:33:20;32.60;99.90
843;DHT22;407;48.884;9.126;2022-08-11T06:36:04;32.60;99.90
843;DHT22;407;48.884;9.126;2022-08-11T06:39:12;33.00;99.90
843;DHT22;407;48.884;9.126;2022-08-11T06:41:53;33.60;99.90
843;DHT22;407;48.884;9.126;2022-08-11T06:44:38;34.40;99.90
843;DHT22;407;48.884;9.126;2022-08-11T06:47:12;34.50;99.90
843;DHT22;407;48.884;9.126;2022-08-11T06:49:44;34.60;99.90
843;DHT22;407;48.884;9.126;2022-08-11T06:52:36;35.10;99.90
843;DHT22;407;48.884;9.126;2022-08-11T06:55:10;36.00;99.90
843;DHT22;407;48.884;9.126;2022-08-11T06:57:37;35.10;99.90
843;DHT22;407;48.884;9.126;2022-08-11T07:00:24;35.10;99.90
843;DHT22;407;48.884;9.126;2022-08-11T07:03:07;35.30;99.90
843;DHT22;407;48.884;9.126;2022-08-11T07:14:24;35.40;99.90
843;DHT22;407;48.884;9.126;2022-08-11T07:17:20;35.70;99.90
843;DHT22;407;48.884;9.126;2022-08-11T07:19:54;36.00;99.90
843;DHT22;407;48.884;9.126;2022-08-11T07:22:40;35.90;99.90
843;DHT22;407;48.884;9.126;2022-08-11T07:25:27;35.70;99.90
843;DHT22;407;48.884;9.126;2022-08-11T07:28:24;35.80;99.90
843;DHT22;407;48.884;9.126;2022-08-11T07:31:11;36.40;99.90
843;DHT22;407;48.884;9.126;2022-08-11T07:33:50;37.60;99.90
843;DHT22;407;48.884;9.126;2022-08-11T07:36:17;37.10;99.90
843;DHT22;407;48.884;9.126;2022-08-11T07:38:46;37.00;99.90
843;DHT22;407;48.884;9.126;2022-08-11T07:41:17;37.10;99.90
843;DHT22;407;48.884;9.126;2022-08-11T07:43:45;36.60;99.90
843;DHT22;407;48.884;9.126;2022-08-11T07:46:14;36.40;99.90
843;DHT22;407;48.884;9.126;2022-08-11T07:48:58;36.60;99.90
843;DHT22;407;48.884;9.126;2022-08-11T07:51:44;36.40;99.90
843;DHT22;407;48.884;9.126;2022-08-11T07:54:29;36.50;99.90
843;DHT22;407;48.884;9.126;2022-08-11T07:56:55;37.00;99.90
843;DHT22;407;48.884;9.126;2022-08-11T07:59:22;36.80;99.90
843;DHT22;407;48.884;9.126;2022-08-11T08:02:08;37.20;99.90
843;DHT22;407;48.884;9.126;2022-08-11T08:04:54;36.90;99.90
843;DHT22;407;48.884;9.126;2022-08-11T08:07:39;37.40;99.90
843;DHT22;407;48.884;9.126;2022-08-11T08:10:24;37.10;99.90
843;DHT22;407;48.884;9.126;2022-08-11T08:13:08;37.10;99.90
843;DHT22;407;48.884;9.126;2022-08-11T08:15:53;37.30;99.90
843;DHT22;407;48.884;9.126;2022-08-11T08:18:39;38.30;99.90
843;DHT22;407;48.884;9.126;2022-08-11T08:21:06;38.40;99.90
843;DHT22;407;48.884;9.126;2022-08-11T08:23:43;38.20;99.90
843;DHT22;407;48.884;9.126;2022-08-11T08:26:12;38.50;99.90
843;DHT22;407;48.884;9.126;2022-08-11T08:29:00;38.30;99.90
843;DHT22;407;48.884;9.126;2022-08-11T08:31:46;38.30;99.90
843;DHT22;407;48.884;9.126;2022-08-11T08:34:14;37.90;99.90
843;DHT22;407;48.884;9.126;2022-08-11T08:36:48;36.70;99.90
843;DHT22;407;48.884;9.126;2022-08-11T08:39:18;36.60;99.90
843;DHT22;407;48.884;9.126;2022-08-11T08:41:56;37.00;99.90
843;DHT22;407;48.884;9.126;2022-08-11T08:44:24;36.90;99.90
843;DHT22;407;48.884;9.126;2022-08-11T08:46:54;37.50;99.90
843;DHT22;407;48.884;9.126;2022-08-11T08:49:33;38.00;99.90
843;DHT22;407;48.884;9.126;2022-08-11T08:52:02;38.40;99.90
843;DHT22;407;48.884;9.126;2022-08-11T08:54:37;38.60;99.90
843;DHT22;407;48.884;9.126;2022-08-11T08:57:05;38.40;99.90
843;DHT22;407;48.884;9.126;2022-08-11T08:59:39;38.60;99.90
843;DHT22;407;48.884;9.126;2022-08-11T09:02:06;39.10;99.90
843;DHT22;407;48.884;9.126;2022-08-11T09:04:33;38.80;99.90
843;DHT22;407;48.884;9.126;2022-08-11T09:07:06;37.70;99.90
843;DHT22;407;48.884;9.126;2022-08-11T09:09:33;36.50;99.90
843;DHT22;407;48.884;9.126;2022-08-11T09:11:59;35.90;99.90
843;DHT22;407;48.884;9.126;2022-08-11T09:14:36;36.50;99.90
843;DHT22;407;48.884;9.126;2022-08-11T09:17:22;37.20;99.90
843;DHT22;407;48.884;9.126;2022-08-11T09:22:25;37.80;1.00
843;DHT22;407;48.884;9.126;2022-08-11T09:25:10;37.70;1.00
843;DHT22;407;48.884;9.126;2022-08-11T09:27:54;37.50;1.00
843;DHT22;407;48.884;9.126;2022-08-11T09:30:23;37.30;1.00
843;DHT22;407;48.884;9.126;2022-08-11T09:32:57;38.10;1.00
843;DHT22;407;48.884;9.126;2022-08-11T09:35:29;38.60;1.00
843;DHT22;407;48.884;9.126;2022-08-11T09:37:56;38.60;1.00
843;DHT22;407;48.884;9.126;2022-08-11T09:40:47;38.40;1.00
843;DHT22;407;48.884;9.126;2022-08-11T09:43:15;38.80;1.00
843;DHT22;407;48.884;9.126;2022-08-11T09:48:52;38.40;1.00
843;DHT22;407;48.884;9.126;2022-08-11T09:51:21;37.20;99.90
843;DHT22;407;48.884;9.126;2022-08-11T09:53:48;37.30;99.90
843;DHT22;407;48.884;9.126;2022-08-11T09:56:20;38.10;1.00
843;DHT22;407;48.884;9.126;2022-08-11T09:59:04;37.70;99.90
843;DHT22;407;48.884;9.126;2022-08-11T10:01:34;37.10;99.90
843;DHT22;407;48.884;9.126;2022-08-11T10:04:10;36.40;99.90
843;DHT22;407;48.884;9.126;2022-08-11T10:09:25;36.70;1.00
843;DHT22;407;48.884;9.126;2022-08-11T10:11:56;36.60;1.00
843;DHT22;407;48.884;9.126;2022-08-11T10:14:22;35.50;99.90
843;DHT22;407;48.884;9.126;2022-08-11T10:17:09;34.60;99.90
843;DHT22;407;48.884;9.126;2022-08-11T10:19:36;35.30;99.90
843;DHT22;407;48.884;9.126;2022-08-11T10:22:04;36.40;99.90
843;DHT22;407;48.884;9.126;2022-08-11T10:24:50;37.00;99.90
843;DHT22;407;48.884;9.126;2022-08-11T10:27:35;35.90;99.90
843;DHT22;407;48.884;9.126;2022-08-11T10:30:01;35.20;99.90
843;DHT22;407;48.884;9.126;2022-08-11T10:32:46;34.90;99.90
843;DHT22;407;48.884;9.126;2022-08-11T10:35:33;34.50;99.90
843;DHT22;407;48.884;9.126;2022-08-11T10:37:59;34.20;99.90
843;DHT22;407;48.884;9.126;2022-08-11T10:40:26;34.20;99.90
843;DHT22;407;48.884;9.126;2022-08-11T10:42:58;34.00;99.90
843;DHT22;407;48.884;9.126;2022-08-11T10:45:44;33.20;99.90
843;DHT22;407;48.884;9.126;2022-08-11T10:48:34;33.40;99.90
843;DHT22;407;48.884;9.126;2022-08-11T10:51:01;33.00;99.90
843;DHT22;407;48.884;9.126;2022-08-11T10:53:44;32.70;99.90
843;DHT22;407;48.884;9.126;2022-08-11T10:56:37;32.90;99.90
843;DHT22;407;48.884;9.126;2022-08-11T10:59:23;32.70;99.90
843;DHT22;407;48.884;9.126;2022-08-11T11:09:30;31.20;1.00
843;DHT22;407;48.884;9.126;2022-08-11T11:12:26;31.70;1.00
843;DHT22;407;48.884;9.126;2022-08-11T11:15:15;31.80;1.00
843;DHT22;407;48.884;9.126;2022-08-11T11:37:42;32.20;99.90
843;DHT22;407;48.884;9.126;2022-08-11T11:40:14;31.10;99.90
843;DHT22;407;48.884;9.126;2022-08-11T11:42:42;30.80;99.90
843;DHT22;407;48.884;9.126;2022-08-11T11:45:10;31.20;99.90
843;DHT22;407;48.884;9.126;2022-08-11T11:47:40;31.30;99.90
843;DHT22;407;48.884;9.126;2022-08-11T11:50:07;31.20;99.90
843;DHT22;407;48.884;9.126;2022-08-11T11:52:34;31.30;99.90
843;DHT22;407;48.884;9.126;2022-08-11T11:55:00;31.30;99.90
843;DHT22;407;48.884;9.126;2022-08-11T11:57:27;31.60;99.90
843;DHT22;407;48.884;9.126;2022-08-11T12:00:11;31.20;99.90
843;DHT22;407;48.884;9.126;2022-08-11T12:03:01;31.20;99.90
843;DHT22;407;48.884;9.126;2022-08-11T12:05:27;30.90;99.90
843;DHT22;407;48.884;9.126;2022-08-11T12:07:54;31.00;99.90
843;DHT22;407;48.884;9.126;2022-08-11T12:11:01;31.10;99.90
843;DHT22;407;48.884;9.126;2022-08-11T12:13:47;31.40;99.90
843;DHT22;407;48.884;9.126;2022-08-11T12:16:18;30.80;99.90
843;DHT22;407;48.884;9.126;2022-08-11T12:18:46;30.40;99.90
843;DHT22;407;48.884;9.126;2022-08-11T12:21:14;30.80;99.90
843;DHT22;407;48.884;9.126;2022-08-11T12:23:41;31.30;99.90
843;DHT22;407;48.884;9.126;2022-08-11T12:26:27;31.80;99.90
843;DHT22;407;48.884;9.126;2022-08-11T12:29:13;32.10;99.90
843;DHT22;407;48.884;9.126;2022-08-11T12:31:40;31.70;99.90
843;DHT22;407;48.884;9.126;2022-08-11T12:34:08;31.70;99.90
843;DHT22;407;48.884;9.126;2022-08-11T12:36:38;31.60;99.90
843;DHT22;407;48.884;9.126;2022-08-11T12:39:06;31.40;99.90
843;DHT22;407;48.884;9.126;2022-08-11T12:41:34;31.40;99.90
843;DHT22;407;48.884;9.126;2022-08-11T12:44:20;31.50;99.90
843;DHT22;407;48.884;9.126;2022-08-11T12:47:06;31.60;99.90
843;DHT22;407;48.884;9.126;2022-08-11T12:49:36;31.50;99.90
843;DHT22;407;48.884;9.126;2022-08-11T12:52:26;31.80;99.90
843;DHT22;407;48.884;9.126;2022-08-11T12:55:08;31.60;99.90
843;DHT22;407;48.884;9.126;2022-08-11T12:57:38;31.30;99.90
843;DHT22;407;48.884;9.126;2022-08-11T13:00:27;31.20;99.90
843;DHT22;407;48.884;9.126;2022-08-11T13:03:13;31.70;99.90
843;DHT22;407;48.884;9.126;2022-08-11T13:06:00;32.00;99.90
843;DHT22;407;48.884;9.126;2022-08-11T13:08:28;32.00;99.90
843;DHT22;407;48.884;9.126;2022-08-11T13:10:57;32.10;99.90
843;DHT22;407;48.884;9.126;2022-08-11T13:13:44;32.10;99.90
843;DHT22;407;48.884;9.126;2022-08-11T13:16:11;31.90;99.90
843;DHT22;407;48.884;9.126;2022-08-11T13:18:40;31.30;99.90
843;DHT22;407;48.884;9.126;2022-08-11T13:21:09;31.00;99.90
843;DHT22;407;48.884;9.126;2022-08-11T13:23:37;31.00;99.90
843;DHT22;407;48.884;9.126;2022-08-11T13:26:03;31.00;99.90
843;DHT22;407;48.884;9.126;2022-08-11T13:28:30;30.90;99.90
843;DHT22;407;48.884;9.126;2022-08-11T13:30:56;30.60;99.90
843;DHT22;407;48.884;9.126;2022-08-11T13:33:55;30.30;99.90
843;DHT22;407;48.884;9.126;2022-08-11T13:36:22;30.80;99.90
843;DHT22;407;48.884;9.126;2022-08-11T13:38:52;31.50;99.90
843;DHT22;407;48.884;9.126;2022-08-11T13:41:19;31.60;99.90
843;DHT22;407;48.884;9.126;2022-08-11T13:44:08;31.40;99.90
843;DHT22;407;48.884;9.126;2022-08-11T13:46:38;31.60;99.90
843;DHT22;407;48.884;9.126;2022-08-11T13:49:04;31.50;99.90
843;DHT22;407;48.884;9.126;2022-08-11T13:51:32;31.10;99.90
843;DHT22;407;48.884;9.126;2022-08-11T13:54:07;30.80;99.90
843;DHT22;407;48.884;9.126;2022-08-11T13:56:35;31.10;99.90
843;DHT22;407;48.884;9.126;2022-08-11T13:59:04;31.40;99.90
843;DHT22;407;48.884;9.126;2022-08-11T14:01:35;31.30;99.90
843;DHT22;407;48.884;9.126;2022-08-11T14:04:07;31.30;99.90
843;DHT22;407;48.884;9.126;2022-08-11T14:06:35;31.20;99.90
843;DHT22;407;48.884;9.126;2022-08-11T14:09:03;31.30;99.90
843;DHT22;407;48.884;9.126;2022-08-11T14:11:33;31.00;99.90
843;DHT22;407;48.884;9.126;2022-08-11T14:14:35;31.00;99.90
843;DHT22;407;48.884;9.126;2022-08-11T14:17:05;31.30;99.90
843;DHT22;407;48.884;9.126;2022-08-11T14:19:46;31.50;99.90
843;DHT22;407;48.884;9.126;2022-08-11T14:22:14;31.40;99.90
843;DHT22;407;48.884;9.126;2022-08-11T14:24:43;31.50;99.90
843;DHT22;407;48.884;9.126;2022-08-11T14:27:15;31.40;99.90
843;DHT22;407;48.884;9.126;2022-08-11T14:29:42;31.60;99.90
843;DHT22;407;48.884;9.126;2022-08-11T14:32:10;31.60;99.90
843;DHT22;407;48.884;9.126;2022-08-11T14:34:40;31.60;99.90
843;DHT22;407;48.884;9.126;2022-08-11T14:37:12;31.80;99.90
843;DHT22;407;48.884;9.126;2022-08-11T14:39:48;31.80;99.90
843;DHT22;407;48.884;9.126;2022-08-11T14:42:17;31.70;99.90
843;DHT22;407;48.884;9.126;2022-08-11T14:45:10;31.60;99.90
843;DHT22;407;48.884;9.126;2022-08-11T14:48:02;31.50;99.90
843;DHT22;407;48.884;9.126;2022-08-11T14:50:30;31.40;99.90
843;DHT22;407;48.884;9.126;2022-08-11T14:53:05;31.50;99.90
843;DHT22;407;48.884;9.126;2022-08-11T14:55:35;31.30;99.90
843;DHT22;407;48.884;9.126;2022-08-11T14:58:21;31.30;99.90
843;DHT22;407;48.884;9.126;2022-08-11T15:00:53;31.20;99.90
843;DHT22;407;48.884;9.126;2022-08-11T15:03:19;31.10;99.90
843;DHT22;407;48.884;9.126;2022-08-11T15:05:51;30.60;99.90
843;DHT22;407;48.884;9.126;2022-08-11T15:08:18;30.60;99.90
843;DHT22;407;48.884;9.126;2022-08-11T15:10:47;30.70;99.90
843;DHT22;407;48.884;9.126;2022-08-11T15:13:17;30.80;99.90
843;DHT22;407;48.884;9.126;2022-08-11T15:15:43;30.90;99.90
843;DHT22;407;48.884;9.126;2022-08-11T15:18:28;30.70;99.90
843;DHT22;407;48.884;9.126;2022-08-11T15:20:55;30.40;99.90
843;DHT22;407;48.884;9.126;2022-08-11T15:23:39;30.50;99.90
843;DHT22;407;48.884;9.126;2022-08-11T15:26:30;30.70;99.90
843;DHT22;407;48.884;9.126;2022-08-11T15:29:21;31.00;99.90
843;DHT22;407;48.884;9.126;2022-08-11T15:32:09;30.70;99.90
843;DHT22;407;48.884;9.126;2022-08-11T15:35:01;30.70;99.90
843;DHT22;407;48.884;9.126;2022-08-11T15:37:50;30.70;99.90
843;DHT22;407;48.884;9.126;2022-08-11T15:40:43;30.90;99.90
843;DHT22;407;48.884;9.126;2022-08-11T15:46:45;31.30;99.90
843;DHT22;407;48.884;9.126;2022-08-11T15:49:14;31.10;99.90
843;DHT22;407;48.884;9.126;2022-08-11T15:51:49;31.10;99.90
843;DHT22;407;48.884;9.126;2022-08-11T15:54:19;30.80;99.90
843;DHT22;407;48.884;9.126;2022-08-11T15:56:49;30.70;99.90
843;DHT22;407;48.884;9.126;2022-08-11T15:59:18;30.50;99.90
843;DHT22;407;48.884;9.126;2022-08-11T16:02:07;30.50;99.90
843;DHT22;407;48.884;9.126;2022-08-11T16:04:54;30.40;99.90
843;DHT22;407;48.884;9.126;2022-08-11T16:07:24;30.50;99.90
843;DHT22;407;48.884;9.126;2022-08-11T16:09:56;30.60;99.90
843;DHT22;407;48.884;9.126;2022-08-11T16:12:34;30.50;99.90
843;DHT22;407;48.884;9.126;2022-08-11T16:15:05;30.60;99.90
843;DHT22;407;48.884;9.126;2022-08-11T16:18:02;30.80;99.90
843;DHT22;407;48.884;9.126;2022-08-11T16:20:29;30.70;99.90
843;DHT22;407;48.884;9.126;2022-08-11T16:22:59;30.50;99.90
843;DHT22;407;48.884;9.126;2022-08-11T16:25:27;30.50;99.90
843;DHT22;407;48.884;9.126;2022-08-11T16:27:59;30.50;99.90
843;DHT22;407;48.884;9.126;2022-08-11T16:30:41;30.60;99.90
843;DHT22;407;48.884;9.126;2022-08-11T16:33:09;30.60;99.90
843;DHT22;407;48.884;9.126;2022-08-11T16:35:36;30.70;99.90
843;DHT22;407;48.884;9.126;2022-08-11T16:38:24;30.60;99.90
843;DHT22;407;48.884;9.126;2022-08-11T16:41:13;30.40;99.90
843;DHT22;407;48.884;9.126;2022-08-11T16:43:44;30.30;99.90
843;DHT22;407;48.884;9.126;2022-08-11T16:46:29;30.30;99.90
843;DHT22;407;48.884;9.126;2022-08-11T16:49:32;30.30;99.90
843;DHT22;407;48.884;9.126;2022-08-11T16:51:59;30.40;99.90
843;DHT22;407;48.884;9.126;2022-08-11T16:54:29;30.40;99.90
843;DHT22;407;48.884;9.126;2022-08-11T16:56:56;30.30;99.90
843;DHT22;407;48.884;9.126;2022-08-11T16:59:43;30.20;99.90
843;DHT22;407;48.884;9.126;2022-08-11T17:02:15;30.20;99.90
843;DHT22;407;48.884;9.126;2022-08-11T17:05:02;30.00;99.90
843;DHT22;407;48.884;9.126;2022-08-11T17:07:54;29.90;99.90
843;DHT22;407;48.884;9.126;2022-08-11T17:10:45;29.90;99.90
843;DHT22;407;48.884;9.126;2022-08-11T17:13:36;29.80;99.90
843;DHT22;407;48.884;9.126;2022-08-11T17:16:05;29.80;99.90
843;DHT22;407;48.884;9.126;2022-08-11T17:23:40;29.60;99.90
843;DHT22;407;48.884;9.126;2022-08-11T17:26:30;29.60;99.90
843;DHT22;407;48.884;9.126;2022-08-11T17:29:27;29.60;99.90
843;DHT22;407;48.884;9.126;2022-08-11T17:31:54;29.50;99.90
843;DHT22;407;48.884;9.126;2022-08-11T17:34:42;29.50;99.90
843;DHT22;407;48.884;9.126;2022-08-11T17:37:28;29.40;99.90
843;DHT22;407;48.884;9.126;2022-08-11T17:39:56;29.90;99.90
843;DHT22;407;48.884;9.126;2022-08-11T17:42:23;29.50;99.90
843;DHT22;407;48.884;9.126;2022-08-11T17:45:10;29.40;99.90
843;DHT22;407;48.884;9.126;2022-08-11T17:47:55;29.20;99.90
843;DHT22;407;48.884;9.126;2022-08-11T17:50:40;29.10;99.90
843;DHT22;407;48.884;9.126;2022-08-11T17:53:07;29.10;99.90
843;DHT22;407;48.884;9.126;2022-08-11T17:55:51;29.20;99.90
843;DHT22;407;48.884;9.126;2022-08-11T17:58:38;29.20;99.90
843;DHT22;407;48.884;9.126;2022-08-11T18:01:24;29.20;99.90
843;DHT22;407;48.884;9.126;2022-08-11T18:03:51;29.00;99.90
843;DHT22;407;48.884;9.126;2022-08-11T18:06:18;28.90;99.90
843;DHT22;407;48.884;9.126;2022-08-11T18:08:46;28.80;99.90
843;DHT22;407;48.884;9.126;2022-08-11T18:11:32;28.80;99.90
843;DHT22;407;48.884;9.126;2022-08-11T18:14:18;28.50;99.90
843;DHT22;407;48.884;9.126;2022-08-11T18:17:03;28.60;99.90
843;DHT22;407;48.884;9.126;2022-08-11T18:19:48;28.50;99.90
843;DHT22;407;48.884;9.126;2022-08-11T18:22:36;28.50;99.90
843;DHT22;407;48.884;9.126;2022-08-11T18:25:24;28.40;99.90
843;DHT22;407;48.884;9.126;2022-08-11T18:28:11;28.40;99.90
843;DHT22;407;48.884;9.126;2022-08-11T18:30:59;28.30;99.90
843;DHT22;407;48.884;9.126;2022-08-11T18:33:54;28.30;99.90
843;DHT22;407;48.884;9.126;2022-08-11T18:36:44;28.20;99.90
843;DHT22;407;48.884;9.126;2022-08-11T18:39:33;28.10;99.90
843;DHT22;407;48.884;9.126;2022-08-11T18:42:20;28.00;99.90
843;DHT22;407;48.884;9.126;2022-08-11T18:45:09;27.90;99.90
843;DHT22;407;48.884;9.126;2022-08-11T18:48:01;27.80;99.90
843;DHT22;407;48.884;9.126;2022-08-11T18:50:46;27.70;99.90
843;DHT22;407;48.884;9.126;2022-08-11T18:53:33;27.70;99.90
843;DHT22;407;48.884;9.126;2022-08-11T18:56:20;27.60;99.90
843;DHT22;407;48.884;9.126;2022-08-11T18:59:07;27.40;99.90
843;DHT22;407;48.884;9.126;2022-08-11T19:01:54;27.30;99.90
843;DHT22;407;48.884;9.126;2022-08-11T19:04:40;27.20;99.90
843;DHT22;407;48.884;9.126;2022-08-11T19:07:27;27.10;99.90
843;DHT22;407;48.884;9.126;2022-08-11T19:10:14;27.00;99.90
843;DHT22;407;48.884;9.126;2022-08-11T19:12:59;26.80;99.90
843;DHT22;407;48.884;9.126;2022-08-11T19:15:44;26.50;99.90
843;DHT22;407;48.884;9.126;2022-08-11T19:18:30;26.50;99.90
843;DHT22;407;48.884;9.126;2022-08-11T19:21:17;26.40;99.90
843;DHT22;407;48.884;9.126;2022-08-11T19:24:03;26.30;99.90
843;DHT22;407;48.884;9.126;2022-08-11T19:26:49;26.20;99.90
843;DHT22;407;48.884;9.126;2022-08-11T19:29:35;26.10;99.90
843;DHT22;407;48.884;9.126;2022-08-11T19:32:22;26.00;99.90
843;DHT22;407;48.884;9.126;2022-08-11T19:35:07;25.90;99.90
843;DHT22;407;48.884;9.126;2022-08-11T19:37:53;25.80;99.90
843;DHT22;407;48.884;9.126;2022-08-11T19:40:38;25.80;99.90
843;DHT22;407;48.884;9.126;2022-08-11T19:43:24;25.70;99.90
843;DHT22;407;48.884;9.126;2022-08-11T19:46:09;25.60;99.90
843;DHT22;407;48.884;9.126;2022-08-11T19:48:55;25.60;99.90
843;DHT22;407;48.884;9.126;2022-08-11T19:51:42;25.50;99.90
843;DHT22;407;48.884;9.126;2022-08-11T19:54:30;25.50;99.90
843;DHT22;407;48.884;9.126;2022-08-11T19:57:16;25.40;99.90
843;DHT22;407;48.884;9.126;2022-08-11T20:00:06;25.40;99.90
843;DHT22;407;48.884;9.126;2022-08-11T20:02:50;25.20;99.90
843;DHT22;407;48.884;9.126;2022-08-11T20:05:35;25.20;99.90
843;DHT22;407;48.884;9.126;2022-08-11T20:08:20;25.20;99.90
843;DHT22;407;48.884;9.126;2022-08-11T20:11:06;25.10;99.90
843;DHT22;407;48.884;9.126;2022-08-11T20:13:52;25.20;99.90
843;DHT22;407;48.884;9.126;2022-08-11T20:16:36;25.10;99.90
843;DHT22;407;48.884;9.126;2022-08-11T20:19:23;25.00;99.90
843;DHT22;407;48.884;9.126;2022-08-11T20:22:08;25.00;99.90
843;DHT22;407;48.884;9.126;2022-08-11T20:24:54;25.00;99.90
843;DHT22;407;48.884;9.126;2022-08-11T20:27:41;24.80;99.90
843;DHT22;407;48.884;9.126;2022-08-11T20:30:28;24.80;99.90
843;DHT22;407;48.884;9.126;2022-08-11T20:33:14;24.20;99.90
843;DHT22;407;48.884;9.126;2022-08-11T20:36:00;23.80;99.90
843;DHT22;407;48.884;9.126;2022-08-11T20:38:44;23.40;99.90
843;DHT22;407;48.884;9.126;2022-08-11T20:41:30;23.10;99.90
843;DHT22;407;48.884;9.126;2022-08-11T20:44:15;23.10;99.90
843;DHT22;407;48.884;9.126;2022-08-11T20:47:01;23.10;99.90
843;DHT22;407;48.884;9.126;2022-08-11T20:49:46;23.20;99.90
843;DHT22;407;48.884;9.126;2022-08-11T20:52:32;23.10;99.90
843;DHT22;407;48.884;9.126;2022-08-11T20:55:17;23.10;99.90
843;DHT22;407;48.884;9.126;2022-08-11T20:58:02;23.10;99.90
843;DHT22;407;48.884;9.126;2022-08-11T21:00:48;23.20;99.90
843;DHT22;407;48.884;9.126;2022-08-11T21:03:33;23.10;99.90
843;DHT22;407;48.884;9.126;2022-08-11T21:06:18;23.10;99.90
843;DHT22;407;48.884;9.126;2022-08-11T21:09:04;23.10;99.90
843;DHT22;407;48.884;9.126;2022-08-11T21:11:52;23.20;99.90
843;DHT22;407;48.884;9.126;2022-08-11T21:14:38;23.30;99.90
843;DHT22;407;48.884;9.126;2022-08-11T21:17:24;23.10;99.90
843;DHT22;407;48.884;9.126;2022-08-11T21:20:15;23.20;99.90
843;DHT22;407;48.884;9.126;2022-08-11T21:23:05;23.10;99.90
843;DHT22;407;48.884;9.126;2022-08-11T21:25:59;23.10;99.90
843;DHT22;407;48.884;9.126;2022-08-11T21:28:45;23.10;99.90
843;DHT22;407;48.884;9.126;2022-08-11T21:31:31;22.90;99.90
843;DHT22;407;48.884;9.126;2022-08-11T21:34:18;22.50;99.90
843;DHT22;407;48.884;9.126;2022-08-11T21:37:06;22.40;99.90
843;DHT22;407;48.884;9.126;2022-08-11T21:39:52;22.30;99.90
843;DHT22;407;48.884;9.126;2022-08-11T21:42:41;22.20;99.90
843;DHT22;407;48.884;9.126;2022-08-11T21:45:26;22.20;99.90
843;DHT22;407;48.884;9.126;2022-08-11T21:48:11;22.30;99.90
843;DHT22;407;48.884;9.126;2022-08-11T21:50:56;22.40;99.90
843;DHT22;407;48.884;9.126;2022-08-11T21:53:41;22.50;99.90
843;DHT22;407;48.884;9.126;2022-08-11T21:56:26;22.50;99.90
843;DHT22;407;48.884;9.126;2022-08-11T21:59:10;22.40;99.90
843;DHT22;407;48.884;9.126;2022-08-11T22:01:55;22.30;99.90
843;DHT22;407;48.884;9.126;2022-08-11T22:04:44;22.20;99.90
843;DHT22;407;48.884;9.126;2022-08-11T22:07:28;22.10;99.90
843;DHT22;407;48.884;9.126;2022-08-11T22:10:14;22.10;99.90
843;DHT22;407;48.884;9.126;2022-08-11T22:12:58;22.10;99.90
843;DHT22;407;48.884;9.126;2022-08-11T22:15:43;22.00;99.90
843;DHT22;407;48.884;9.126;2022-08-11T22:18:27;21.90;99.90
843;DHT22;407;48.884;9.126;2022-08-11T22:21:13;21.80;99.90
843;DHT22;407;48.884;9.126;2022-08-11T22:23:59;21.70;99.90
843;DHT22;407;48.884;9.126;2022-08-11T22:26:43;21.70;99.90
843;DHT22;407;48.884;9.126;2022-08-11T22:29:27;21.60;99.90
843;DHT22;407;48.884;9.126;2022-08-11T22:32:14;21.60;99.90
843;DHT22;407;48.884;9.126;2022-08-11T22:35:02;21.50;99.90
843;DHT22;407;48.884;9.126;2022-08-11T22:37:47;21.40;99.90
843;DHT22;407;48.884;9.126;2022-08-11T22:40:32;21.40;99.90
843;DHT22;407;48.884;9.126;2022-08-11T22:43:17;21.30;99.90
843;DHT22;407;48.884;9.126;2022-08-11T22:46:01;21.40;99.90
843;DHT22;407;48.884;9.126;2022-08-11T22:48:46;21.40;99.90
843;DHT22;407;48.884;9.126;2022-08-11T22:51:33;21.40;99.90
843;DHT22;407;48.884;9.126;2022-08-11T22:54:19;21.40;99.90
843;DHT22;407;48.884;9.126;2022-08-11T22:57:05;21.40;99.90
843;DHT22;407;48.884;9.126;2022-08-11T22:59:51;21.30;99.90
843;DHT22;407;48.884;9.126;2022-08-11T23:02:36;21.20;99.90
843;DHT22;407;48.884;9.126;2022-08-11T23:05:20;21.30;99.90
843;DHT22;407;48.884;9.126;2022-08-11T23:08:06;21.10;99.90
843;DHT22;407;48.884;9.126;2022-08-11T23:10:51;21.10;99.90
843;DHT22;407;48.884;9.126;2022-08-11T23:13:35;21.00;99.90
843;DHT22;407;48.884;9.126;2022-08-11T23:16:20;20.90;99.90